Time;durP1;ratioP1;P1;durP2;ratioP2;P2;SDS_P1;SDS_P2;PMS_P1;PMS_P2;Temp;Humidity;BMP_temperature;BMP_pressure;BME280_temperature;BME280_humidity;BME280_pressure;Samples;Min_cycle;Max_cycle;Signal;HPM_P1;HPM_P2
2021/07/17 00:01:32;;;;;;;32.00;10.68;;;;;;;17.96;100.00;102009.66;6247432;28;20060;-75
2021/07/17 00:04:33;;;;;;;38.58;11.18;;;;;;;17.82;100.00;102003.53;6251155;28;20045;-76
2021/07/17 00:07:35;;;;;;;47.13;11.77;;;;;;;17.78;100.00;102007.31;6250890;28;20054;-77
2021/07/17 00:10:39;;;;;;;50.83;11.82;;;;;;;17.77;100.00;102013.59;6260849;28;20045;-76
2021/07/17 00:13:41;;;;;;;60.67;13.43;;;;;;;17.69;100.00;102006.91;6275133;28;20055;-76
2021/07/17 00:16:43;;;;;;;51.03;12.80;;;;;;;17.81;100.00;102010.66;6275584;28;20053;-75
2021/07/17 00:19:45;;;;;;;34.03;11.52;;;;;;;17.94;100.00;102000.94;6275145;28;20075;-75
2021/07/17 00:22:46;;;;;;;37.72;11.20;;;;;;;17.68;100.00;102002.56;6275413;28;20059;-76
2021/07/17 00:25:52;;;;;;;45.13;12.98;;;;;;;17.64;100.00;102010.81;6275473;28;20052;-76
2021/07/17 00:28:54;;;;;;;44.00;12.32;;;;;;;17.65;100.00;102004.53;6275265;28;20060;-75
2021/07/17 00:31:56;;;;;;;43.97;11.57;;;;;;;17.65;100.00;102004.53;6274771;28;20052;-76
2021/07/17 00:34:58;;;;;;;46.78;13.57;;;;;;;17.65;100.00;102001.88;6275051;28;20045;-76
2021/07/17 00:37:59;;;;;;;51.05;12.88;;;;;;;17.66;100.00;102008.91;6275204;28;20048;-76
2021/07/17 00:41:00;;;;;;;42.92;11.80;;;;;;;17.87;100.00;102001.41;6274618;28;20056;-75
2021/07/17 00:44:02;;;;;;;46.25;12.15;;;;;;;17.55;100.00;102012.25;6274994;28;20485;-76
2021/07/17 00:47:07;;;;;;;49.00;13.80;;;;;;;17.53;100.00;102016.78;6274890;28;20045;-75
2021/07/17 00:50:11;;;;;;;42.72;12.18;;;;;;;17.80;100.00;102016.03;6274735;28;20056;-74
2021/07/17 00:53:12;;;;;;;44.08;13.25;;;;;;;17.57;100.00;102010.34;6274498;28;20607;-76
2021/07/17 00:56:15;;;;;;;42.70;11.25;;;;;;;17.70;100.00;102015.75;6274829;28;20056;-75
2021/07/17 00:59:19;;;;;;;47.13;12.27;;;;;;;17.75;100.00;102003.88;6274384;28;20439;-74
2021/07/17 01:02:24;;;;;;;44.47;11.68;;;;;;;17.63;100.00;102006.47;6274455;28;20136;-75
2021/07/17 01:05:26;;;;;;;47.30;13.13;;;;;;;17.69;100.00;102008.72;6274533;28;20415;-72
2021/07/17 01:08:27;;;;;;;50.92;14.10;;;;;;;17.42;100.00;102000.66;6274243;28;20052;-76
2021/07/17 01:11:28;;;;;;;48.13;14.18;;;;;;;17.36;100.00;102004.56;6274028;28;20053;-76
2021/07/17 01:14:30;;;;;;;54.75;14.32;;;;;;;17.43;100.00;102007.69;6273343;28;20053;-77
2021/07/17 01:17:33;;;;;;;56.95;14.02;;;;;;;17.45;100.00;102005.81;6274009;28;20067;-76
2021/07/17 01:20:36;;;;;;;46.78;12.93;;;;;;;17.59;100.00;102008.44;6273899;28;20049;-76
2021/07/17 01:23:39;;;;;;;45.20;13.70;;;;;;;17.43;100.00;102008.53;6273854;28;20048;-76
2021/07/17 01:26:41;;;;;;;52.85;14.45;;;;;;;17.37;100.00;102006.28;6273693;28;20049;-76
2021/07/17 01:29:43;;;;;;;53.88;13.80;;;;;;;17.38;100.00;102010.63;6273887;28;20055;-76
2021/07/17 01:32:45;;;;;;;42.10;13.40;;;;;;;17.44;100.00;102015.59;6273537;28;20123;-76
2021/07/17 01:35:48;;;;;;;44.50;13.70;;;;;;;17.39;100.00;102009.66;6273879;28;20045;-76
2021/07/17 01:38:51;;;;;;;41.67;13.13;;;;;;;17.39;100.00;102014.13;6273764;28;20187;-76
2021/07/17 01:41:52;;;;;;;53.45;13.35;;;;;;;17.40;100.00;102003.44;6273318;28;20052;-76
2021/07/17 01:44:54;;;;;;;40.85;13.38;;;;;;;17.39;100.00;102011.47;6273496;28;20056;-75
2021/07/17 01:47:56;;;;;;;41.92;13.40;;;;;;;17.40;100.00;102008.75;6273290;28;20072;-76
2021/07/17 01:50:57;;;;;;;44.58;13.40;;;;;;;17.42;100.00;102014.81;6273350;28;20126;-76
2021/07/17 01:54:00;;;;;;;40.47;13.80;;;;;;;17.46;100.00;102003.03;6273019;28;20049;-76
2021/07/17 01:57:04;;;;;;;39.20;13.00;;;;;;;17.39;100.00;101996.38;6273078;28;20393;-76
2021/07/17 02:00:07;;;;;;;55.58;14.02;;;;;;;17.37;100.00;101986.81;6272959;28;20060;-76
2021/07/17 02:03:08;;;;;;;43.42;13.05;;;;;;;17.55;100.00;101990.97;6272831;28;20516;-76
2021/07/17 02:06:09;;;;;;;48.50;13.57;;;;;;;17.60;100.00;101991.53;6272964;28;20055;-75
2021/07/17 02:09:12;;;;;;;47.35;14.05;;;;;;;17.36;100.00;101987.78;6272906;28;20056;-75
2021/07/17 02:12:16;;;;;;;49.50;14.25;;;;;;;17.36;100.00;101993.94;6272519;28;20052;-76
2021/07/17 02:15:17;;;;;;;37.78;12.70;;;;;;;17.42;100.00;101987.38;6273027;28;20045;-76
2021/07/17 02:18:24;;;;;;;49.95;14.35;;;;;;;17.41;100.00;101975.91;6272709;28;20519;-76
2021/07/17 02:21:26;;;;;;;46.20;14.35;;;;;;;17.30;100.00;101978.34;6272161;28;20428;-76
2021/07/17 02:24:28;;;;;;;55.28;14.27;;;;;;;17.35;100.00;101984.28;6272489;28;20049;-76
2021/07/17 02:27:30;;;;;;;40.65;13.27;;;;;;;17.30;100.00;101978.34;6272316;28;20068;-75
2021/07/17 02:30:31;;;;;;;46.70;14.73;;;;;;;17.26;100.00;101976.88;6272207;28;20508;-75
2021/07/17 02:33:33;;;;;;;56.78;14.32;;;;;;;17.27;100.00;101983.03;6272061;28;20045;-75
2021/07/17 02:36:34;;;;;;;51.28;14.30;;;;;;;17.29;100.00;101979.31;6272273;28;20447;-75
2021/07/17 02:39:37;;;;;;;41.35;13.50;;;;;;;17.26;100.00;101974.22;6271974;28;20049;-75
2021/07/17 02:42:38;;;;;;;43.00;14.70;;;;;;;17.34;100.00;101979.03;6272145;28;20075;-75
2021/07/17 02:45:39;;;;;;;42.65;12.70;;;;;;;17.21;100.00;101979.81;6271985;28;20045;-75
2021/07/17 02:48:41;;;;;;;45.45;13.48;;;;;;;17.17;100.00;101977.44;6271843;28;20048;-75
2021/07/17 02:51:42;;;;;;;56.20;14.45;;;;;;;17.14;100.00;101970.50;6271543;28;20455;-75
2021/07/17 02:54:45;;;;;;;50.75;14.13;;;;;;;17.14;100.00;101973.16;6271569;28;20131;-75
2021/07/17 02:57:46;;;;;;;53.60;14.70;;;;;;;17.14;100.00;101965.19;6271994;28;20492;-76
2021/07/17 03:00:53;;;;;;;51.55;14.35;;;;;;;17.07;100.00;101973.59;6271660;28;20049;-75
2021/07/17 03:03:55;;;;;;;53.42;14.18;;;;;;;17.07;100.00;101970.94;6271702;28;20040;-75
2021/07/17 03:06:56;;;;;;;53.85;15.02;;;;;;;17.01;100.00;101972.19;6271557;28;20424;-75
2021/07/17 03:09:59;;;;;;;51.38;13.45;;;;;;;16.96;100.00;101968.97;6271533;28;20044;-75
2021/07/17 03:13:00;;;;;;;46.83;13.90;;;;;;;16.93;100.00;101975.28;6271298;28;20044;-75
2021/07/17 03:16:01;;;;;;;53.13;13.65;;;;;;;16.95;100.00;101968.13;6271698;28;20679;-76
2021/07/17 03:19:03;;;;;;;42.00;12.80;;;;;;;16.94;100.00;101968.19;6271169;28;20041;-75
2021/07/17 03:22:04;;;;;;;57.63;14.35;;;;;;;16.93;100.00;101974.44;6271316;28;20142;-76
2021/07/17 03:25:08;;;;;;;40.20;11.73;;;;;;;16.99;100.00;101969.63;6271356;28;20055;-75
2021/07/17 03:28:09;;;;;;;45.15;13.07;;;;;;;16.90;100.00;101970.19;6271533;28;20052;-76
2021/07/17 03:31:11;;;;;;;46.03;11.80;;;;;;;16.93;100.00;101964.69;6271533;28;20045;-75
2021/07/17 03:34:13;;;;;;;55.92;14.98;;;;;;;17.00;100.00;101967.81;6271233;28;20488;-75
2021/07/17 03:37:14;;;;;;;42.42;11.85;;;;;;;16.95;100.00;101967.25;6274351;28;20049;-76
2021/07/17 03:40:17;;;;;;;43.85;11.30;;;;;;;16.94;100.00;101962.88;6276154;28;20519;-75
2021/07/17 03:43:18;;;;;;;44.97;12.13;;;;;;;16.94;100.00;101968.19;6276254;28;20057;-75
2021/07/17 03:46:19;;;;;;;35.03;10.88;;;;;;;16.97;100.00;101965.34;6276063;28;20045;-75
2021/07/17 03:49:21;;;;;;;44.17;11.95;;;;;;;17.02;100.00;101965.06;6275884;28;20427;-75
2021/07/17 03:52:22;;;;;;;34.85;12.02;;;;;;;16.90;100.00;101959.56;6276096;28;20464;-76
2021/07/17 03:55:25;;;;;;;41.53;12.05;;;;;;;16.94;100.00;101963.75;6276160;28;20052;-76
2021/07/17 03:58:26;;;;;;;43.78;11.98;;;;;;;16.88;100.00;101966.75;6276117;28;20049;-76
2021/07/17 04:01:28;;;;;;;44.72;12.27;;;;;;;16.97;100.00;101968.00;6275598;28;20052;-75
2021/07/17 04:04:29;;;;;;;46.17;11.27;;;;;;;16.96;100.00;101967.16;6275889;28;20052;-75
2021/07/17 04:07:30;;;;;;;41.30;10.95;;;;;;;16.86;100.00;101968.66;6275665;28;20049;-76
2021/07/17 04:10:33;;;;;;;46.80;10.18;;;;;;;16.86;100.00;101967.81;6275745;28;20057;-76
2021/07/17 04:13:35;;;;;;;36.70;9.90;;;;;;;16.84;100.00;101967.88;6275356;28;20052;-75
2021/07/17 04:16:36;;;;;;;34.22;8.52;;;;;;;16.90;100.00;101979.97;6275582;28;20515;-75
2021/07/17 04:19:37;;;;;;;38.70;10.32;;;;;;;16.96;100.00;101979.59;6275330;28;20053;-74
2021/07/17 04:22:39;;;;;;;37.85;9.20;;;;;;;16.84;100.00;101973.19;6275297;28;20057;-74
2021/07/17 04:25:42;;;;;;;38.42;10.43;;;;;;;16.83;100.00;101987.44;6275282;28;20420;-74
2021/07/17 04:28:43;;;;;;;39.58;9.18;;;;;;;16.80;100.00;101984.94;6275601;28;20044;-75
2021/07/17 04:31:44;;;;;;;36.90;9.88;;;;;;;16.87;100.00;101988.94;6274858;28;20076;-74
2021/07/17 04:34:45;;;;;;;28.83;8.52;;;;;;;16.89;100.00;101991.50;6275353;28;20049;-75
2021/07/17 04:37:48;;;;;;;34.15;9.60;;;;;;;16.87;100.00;101985.44;6275070;28;20443;-75
2021/07/17 04:40:51;;;;;;;37.08;8.55;;;;;;;16.90;100.00;101988.78;6275020;28;20049;-74
2021/07/17 04:43:53;;;;;;;27.77;7.93;;;;;;;16.89;100.00;101983.53;6274435;28;20096;-75
2021/07/17 04:46:54;;;;;;;35.60;7.82;;;;;;;17.12;100.00;101991.00;6273458;28;20052;-74
2021/07/17 04:49:55;;;;;;;34.17;7.68;;;;;;;17.05;100.00;101983.50;6273688;28;20057;-74
2021/07/17 04:52:56;;;;;;;30.20;6.97;;;;;;;17.07;100.00;101987.75;6274410;28;20060;-74
2021/07/17 04:55:59;;;;;;;38.65;8.38;;;;;;;16.99;100.00;101988.22;6274795;28;20068;-75
2021/07/17 04:59:00;;;;;;;32.08;7.88;;;;;;;16.98;100.00;101998.91;6274564;28;20056;-75
2021/07/17 05:02:02;;;;;;;38.50;8.00;;;;;;;16.96;100.00;102001.69;6274541;28;20049;-74
2021/07/17 05:05:04;;;;;;;37.25;7.78;;;;;;;17.05;100.00;102002.06;6274351;28;20045;-74
2021/07/17 05:08:05;;;;;;;32.20;7.28;;;;;;;17.14;100.00;102009.50;6274191;28;20052;-74
2021/07/17 05:11:08;;;;;;;21.38;6.45;;;;;;;17.19;100.00;102008.25;6274292;28;20052;-75
2021/07/17 05:14:09;;;;;;;34.00;7.35;;;;;;;17.11;100.00;102007.00;6273925;28;20052;-74
2021/07/17 05:17:10;;;;;;;33.05;7.63;;;;;;;17.29;100.00;102003.22;6274290;28;20049;-74
2021/07/17 05:20:13;;;;;;;26.17;6.47;;;;;;;17.33;100.00;102010.06;6273526;28;20441;-74
2021/07/17 05:23:16;;;;;;;29.45;6.35;;;;;;;17.39;100.00;102014.13;6273616;28;20424;-74
2021/07/17 05:26:19;;;;;;;21.90;5.68;;;;;;;17.41;100.00;102007.78;6273868;28;20052;-75
2021/07/17 05:29:20;;;;;;;29.63;7.15;;;;;;;17.27;100.00;102010.44;6273708;28;20052;-74
2021/07/17 05:32:21;;;;;;;24.15;5.82;;;;;;;17.34;100.00;102006.44;6273401;28;20049;-74
2021/07/17 05:35:27;;;;;;;22.13;5.50;;;;;;;17.47;100.00;102004.75;6273766;28;20515;-74
2021/07/17 05:38:29;;;;;;;24.40;5.80;;;;;;;17.44;100.00;101999.63;6273515;28;20053;-73
2021/07/17 05:41:31;;;;;;;15.80;5.00;;;;;;;17.41;100.00;102005.13;6273402;28;20045;-74
2021/07/17 05:44:33;;;;;;;25.23;5.28;;;;;;;17.52;100.00;102008.91;6273288;28;20060;-74
2021/07/17 05:47:35;;;;;;;14.65;5.03;;;;;;;17.64;100.00;102005.50;6270573;28;20053;-73
2021/07/17 05:50:36;;;;;;;19.52;4.63;;;;;;;17.65;100.00;102004.53;6256306;28;20053;-74
2021/07/17 05:53:38;;;;;;;12.40;4.18;;;;;;;17.59;100.00;102007.59;6252982;28;20493;-74
2021/07/17 05:56:41;;;;;;;17.83;4.43;;;;;;;17.52;100.00;102011.56;6259948;28;20041;-74
2021/07/17 05:59:42;;;;;;;14.25;4.22;;;;;;;17.58;100.00;102003.25;6264405;28;20059;-74
2021/07/17 06:02:44;;;;;;;13.68;4.00;;;;;;;17.64;100.00;102009.00;6272896;28;20515;-73
2021/07/17 06:05:45;;;;;;;14.73;4.15;;;;;;;17.97;95.02;102011.34;6272688;28;20045;-73
2021/07/17 06:08:46;;;;;;;8.88;3.10;;;;;;;17.94;94.41;102014.22;6272786;28;20064;-74
2021/07/17 06:11:49;;;;;;;9.00;3.00;;;;;;;18.00;93.28;102015.63;6271210;28;20048;-73
2021/07/17 06:14:50;;;;;;;11.00;2.88;;;;;;;17.91;92.24;102018.88;6272369;28;20052;-73
2021/07/17 06:17:53;;;;;;;8.95;2.85;;;;;;;17.87;91.82;102018.22;6272681;28;20053;-74
2021/07/17 06:20:54;;;;;;;8.75;2.60;;;;;;;17.99;87.85;102022.78;6272462;28;20059;-74
2021/07/17 06:23:57;;;;;;;4.28;2.35;;;;;;;17.94;89.83;102016.91;6272344;28;20060;-73
2021/07/17 06:26:59;;;;;;;12.27;2.72;;;;;;;17.98;89.78;102029.00;6272327;28;20049;-74
2021/07/17 06:30:01;;;;;;;10.00;3.10;;;;;;;17.97;90.54;102024.66;6272376;28;20060;-74
2021/07/17 06:33:02;;;;;;;11.63;2.50;;;;;;;18.10;89.17;102029.19;6272079;28;20551;-73
2021/07/17 06:36:04;;;;;;;9.95;2.35;;;;;;;18.23;86.79;102028.31;6272308;28;20047;-74
2021/07/17 06:39:05;;;;;;;9.18;2.40;;;;;;;18.10;87.06;102029.19;6272092;28;20048;-74
2021/07/17 06:42:08;;;;;;;6.38;1.73;;;;;;;18.25;85.42;102029.03;6271719;28;20393;-74
2021/07/17 06:45:11;;;;;;;7.80;2.03;;;;;;;18.17;87.40;102028.72;6272124;28;20045;-74
2021/07/17 06:48:12;;;;;;;7.10;1.88;;;;;;;18.23;86.97;102041.59;6271825;28;20063;-74
2021/07/17 06:51:13;;;;;;;8.48;2.10;;;;;;;18.54;83.76;102050.25;6271882;28;20049;-74
2021/07/17 06:54:15;;;;;;;4.35;1.70;;;;;;;18.50;84.27;102038.09;6271765;28;20060;-74
2021/07/17 06:57:17;;;;;;;8.23;1.88;;;;;;;18.67;82.55;102050.31;6271866;28;20052;-73
2021/07/17 07:00:20;;;;;;;6.30;1.85;;;;;;;18.77;82.97;102045.25;6271609;28;20044;-73
2021/07/17 07:03:21;;;;;;;7.65;1.85;;;;;;;18.68;83.17;102057.31;6271643;28;20048;-74
2021/07/17 07:06:22;;;;;;;9.60;1.83;;;;;;;18.89;81.77;102050.56;6271616;28;20072;-78
2021/07/17 07:09:24;;;;;;;7.47;1.83;;;;;;;18.90;81.77;102062.09;6271805;28;20053;-74
2021/07/17 07:12:27;;;;;;;5.63;1.77;;;;;;;18.91;83.80;102059.31;6270665;28;20135;-77
2021/07/17 07:15:28;;;;;;;8.77;1.90;;;;;;;18.91;82.88;102059.31;6271611;28;20041;-74
2021/07/17 07:18:30;;;;;;;6.55;2.05;;;;;;;19.03;84.59;102065.66;6270955;28;20496;-74
2021/07/17 07:21:32;;;;;;;10.10;2.13;;;;;;;19.01;82.85;102063.06;6270613;28;20560;-75
2021/07/17 07:24:33;;;;;;;8.18;2.00;;;;;;;19.06;81.87;102068.09;6270905;28;20513;-74
2021/07/17 07:27:37;;;;;;;5.65;1.70;;;;;;;19.21;80.74;102052.84;6271368;28;20053;-74
2021/07/17 07:30:38;;;;;;;12.45;2.20;;;;;;;19.10;83.22;102055.41;6271398;28;20458;-74
2021/07/17 07:33:40;;;;;;;3.40;1.50;;;;;;;19.08;83.57;102060.84;6271066;28;20049;-74
2021/07/17 07:36:41;;;;;;;7.00;1.70;;;;;;;19.37;79.34;102061.50;6271506;28;20041;-73
2021/07/17 07:39:42;;;;;;;4.53;1.40;;;;;;;19.32;80.98;102060.97;6271185;28;20053;-75
2021/07/17 07:42:46;;;;;;;8.98;1.40;;;;;;;19.47;80.38;102049.22;6270953;28;20049;-74
2021/07/17 07:45:47;;;;;;;11.98;2.20;;;;;;;19.58;79.79;102051.16;6271194;28;20049;-74
2021/07/17 07:48:49;;;;;;;7.22;2.03;;;;;;;19.53;82.81;102045.31;6269634;28;20049;-73
2021/07/17 07:51:51;;;;;;;9.25;2.08;;;;;;;19.64;81.86;102047.22;6270550;28;20056;-74
2021/07/17 07:54:52;;;;;;;9.75;2.13;;;;;;;19.65;81.82;102054.25;6271020;28;20060;-74
2021/07/17 07:57:55;;;;;;;10.57;2.22;;;;;;;19.63;80.83;102045.53;6271446;28;20060;-73
2021/07/17 08:00:56;;;;;;;5.20;1.63;;;;;;;19.73;80.31;102044.75;6270948;28;20045;-74
2021/07/17 08:03:57;;;;;;;7.75;1.42;;;;;;;19.94;76.86;102046.84;6270773;28;20049;-74
2021/07/17 08:06:59;;;;;;;5.45;1.60;;;;;;;19.91;78.34;102050.59;6270890;28;20045;-74
2021/07/17 08:10:00;;;;;;;6.05;1.67;;;;;;;20.06;77.52;102055.78;6270961;28;20049;-74
2021/07/17 08:13:03;;;;;;;6.10;1.58;;;;;;;20.08;77.98;102048.53;6270696;28;20053;-74
2021/07/17 08:16:05;;;;;;;6.10;1.70;;;;;;;20.34;76.72;102046.59;6271038;28;20051;-74
2021/07/17 08:19:06;;;;;;;5.53;1.73;;;;;;;20.36;75.54;102050.03;6270768;28;20052;-74
2021/07/17 08:22:07;;;;;;;8.23;1.70;;;;;;;20.22;78.69;102049.22;6271392;28;20072;-74
2021/07/17 08:25:10;;;;;;;5.65;1.70;;;;;;;20.17;79.47;102045.19;6275503;28;20056;-74
2021/07/17 08:28:13;;;;;;;6.50;1.83;;;;;;;20.35;76.93;102054.53;6275433;28;20488;-74
2021/07/17 08:31:14;;;;;;;7.32;2.00;;;;;;;20.43;78.34;102043.25;6275493;28;20045;-75
2021/07/17 08:34:15;;;;;;;11.02;2.28;;;;;;;20.34;80.98;102043.94;6274833;28;20492;-73
2021/07/17 08:37:17;;;;;;;8.32;2.33;;;;;;;20.74;77.49;102045.34;6275313;28;20052;-73
2021/07/17 08:40:18;;;;;;;5.32;1.80;;;;;;;20.69;77.18;102049.34;6275083;28;20056;-74
2021/07/17 08:43:22;;;;;;;6.20;1.70;;;;;;;20.39;81.14;102047.97;6274964;28;20049;-74
2021/07/17 08:46:24;;;;;;;6.18;1.90;;;;;;;20.71;79.26;102050.94;6274649;28;20052;-74
2021/07/17 08:49:26;;;;;;;10.80;1.85;;;;;;;20.72;80.39;102055.31;6274641;28;20496;-74
2021/07/17 08:52:29;;;;;;;6.40;2.13;;;;;;;20.81;78.03;102047.59;6274685;28;20111;-74
2021/07/17 08:55:32;;;;;;;6.38;1.70;;;;;;;20.79;77.76;102053.03;6274621;28;20053;-75
2021/07/17 08:58:34;;;;;;;6.20;1.92;;;;;;;21.16;75.01;102058.22;6274690;28;20053;-74
2021/07/17 09:01:36;;;;;;;9.02;2.13;;;;;;;21.28;75.06;102062.63;6274290;28;20052;-74
2021/07/17 09:04:37;;;;;;;9.43;1.90;;;;;;;21.13;75.27;102061.16;6274388;28;20045;-74
2021/07/17 09:07:39;;;;;;;13.70;2.20;;;;;;;21.19;76.78;102066.03;6274325;28;20048;-74
2021/07/17 09:10:42;;;;;;;11.75;2.20;;;;;;;21.43;76.55;102064.13;6272447;28;20052;-74
2021/07/17 09:13:45;;;;;;;8.55;2.20;;;;;;;21.25;78.30;102061.03;6273881;28;20136;-75
2021/07/17 09:16:59;;;;;;;16.98;2.45;;;;;;;21.26;78.93;102064.59;6274230;28;20496;-73
2021/07/17 09:20:01;;;;;;;10.80;2.22;;;;;;;21.50;76.15;102051.16;6273775;28;20057;-74
2021/07/17 09:23:05;;;;;;;8.95;1.98;;;;;;;21.56;76.64;102047.13;6273927;28;20053;-74
2021/07/17 09:26:12;;;;;;;8.18;1.88;;;;;;;21.27;80.58;102048.41;6273721;28;20049;-72
2021/07/17 09:29:15;;;;;;;9.90;2.13;;;;;;;21.42;80.01;102051.75;6273932;28;20063;-75
2021/07/17 09:32:17;;;;;;;13.38;3.08;;;;;;;21.60;79.96;102045.91;6273462;28;20090;-72
2021/07/17 09:35:22;;;;;;;8.60;2.00;;;;;;;21.79;76.70;102048.81;6273169;28;20041;-72
2021/07/17 09:38:26;;;;;;;9.13;2.03;;;;;;;21.61;78.72;102043.09;6273671;28;20175;-72
2021/07/17 09:41:28;;;;;;;12.45;2.22;;;;;;;22.06;76.01;102045.75;6254089;28;20131;-74
2021/07/17 09:44:32;;;;;;;9.75;1.98;;;;;;;21.77;78.22;102054.31;6258489;28;20053;-72
2021/07/17 09:47:33;;;;;;;9.18;2.20;;;;;;;21.84;78.47;102043.09;6267652;28;20078;-74
2021/07/17 09:50:35;;;;;;;7.65;1.98;;;;;;;21.91;78.04;102047.84;6271656;28;20041;-74
2021/07/17 09:53:38;;;;;;;10.00;1.90;;;;;;;22.06;74.80;102050.25;6258806;28;20393;-71
2021/07/17 09:56:40;;;;;;;7.35;1.92;;;;;;;22.15;76.10;102044.19;6267030;28;20492;-74
2021/07/17 10:00:01;;;;;;;11.30;2.00;;;;;;;22.28;72.33;102045.72;6272922;28;20052;-73
2021/07/17 10:03:13;;;;;;;8.07;2.10;;;;;;;22.45;74.34;102044.34;6272983;28;20135;-73
2021/07/17 10:06:57;;;;;;;8.95;1.85;;;;;;;22.52;73.13;102036.63;6272840;28;20446;-75
2021/07/17 10:09:59;;;;;;;7.05;1.73;;;;;;;22.45;73.01;102038.13;6272780;28;20053;-74
2021/07/17 10:13:00;;;;;;;8.82;1.70;;;;;;;22.72;72.10;102040.34;6272899;28;20049;-74
2021/07/17 10:16:15;;;;;;;5.68;1.50;;;;;;;22.74;69.95;102043.72;6272752;28;20041;-74
2021/07/17 10:19:18;;;;;;;13.13;1.83;;;;;;;22.57;73.00;102046.97;6272713;28;20052;-72
2021/07/17 10:22:21;;;;;;;6.57;1.38;;;;;;;22.53;72.24;102043.72;6272756;28;20055;-74
2021/07/17 10:25:23;;;;;;;9.10;2.40;;;;;;;22.64;70.83;102038.28;6272644;28;20450;-74
2021/07/17 10:28:24;;;;;;;7.63;2.15;;;;;;;22.79;71.19;102044.19;6272487;28;20444;-73
2021/07/17 10:31:27;;;;;;;12.10;2.03;;;;;;;22.69;73.31;102044.09;6272510;28;20049;-73
2021/07/17 10:34:29;;;;;;;11.00;2.25;;;;;;;22.51;75.40;102034.94;6272301;28;20052;-74
2021/07/17 10:37:32;;;;;;;9.98;1.88;;;;;;;23.04;70.69;102037.63;6272250;28;20053;-73
2021/07/17 10:40:33;;;;;;;7.93;2.38;;;;;;;22.95;73.84;102031.22;6272346;28;20061;-74
2021/07/17 10:43:35;;;;;;;6.38;1.70;;;;;;;22.90;71.51;102024.56;6271854;28;20131;-74
2021/07/17 10:46:40;;;;;;;8.23;1.85;;;;;;;23.17;69.43;102026.69;6271218;28;20052;-73
2021/07/17 10:49:44;;;;;;;10.18;2.20;;;;;;;23.29;68.83;102023.78;6271841;28;20053;-73
2021/07/17 10:52:45;;;;;;;7.20;2.00;;;;;;;23.38;71.37;102024.81;6271742;28;20463;-74
2021/07/17 10:55:47;;;;;;;13.85;2.58;;;;;;;23.34;72.87;102020.69;6271729;28;20048;-73
2021/07/17 10:58:48;;;;;;;13.52;2.47;;;;;;;23.51;70.81;102028.13;6265797;28;20048;-73
2021/07/17 11:02:05;;;;;;;14.30;2.28;;;;;;;23.52;69.36;102026.28;6271233;28;20049;-73
2021/07/17 11:05:07;;;;;;;11.73;1.95;;;;;;;23.39;70.32;102017.59;6272081;28;20628;-74
2021/07/17 11:08:29;;;;;;;9.73;1.92;;;;;;;23.52;70.00;102029.81;6271677;28;20045;-74
2021/07/17 11:11:36;;;;;;;13.02;2.28;;;;;;;23.75;68.11;102030.53;6271772;28;20519;-72
2021/07/17 11:14:37;;;;;;;11.02;2.38;;;;;;;23.81;67.25;102028.28;6271322;28;20049;-73
2021/07/17 11:17:44;;;;;;;15.32;2.05;;;;;;;23.92;67.40;102033.53;6271114;28;20048;-74
2021/07/17 11:20:45;;;;;;;9.93;2.20;;;;;;;23.87;66.19;102025.88;6271140;28;20056;-72
2021/07/17 11:23:47;;;;;;;10.13;2.00;;;;;;;23.92;65.30;102020.94;6271449;28;20056;-72
2021/07/17 11:27:07;;;;;;;12.15;1.77;;;;;;;23.87;66.69;102025.03;6271350;28;20048;-72
2021/07/17 11:30:15;;;;;;;8.50;2.42;;;;;;;24.08;63.64;102016.88;6271555;28;20501;-72
2021/07/17 11:33:17;;;;;;;12.05;2.00;;;;;;;24.28;62.82;102022.13;6271296;28;20052;-73
2021/07/17 11:36:25;;;;;;;9.52;2.22;;;;;;;24.37;63.07;102028.53;6271512;28;20048;-72
2021/07/17 11:39:29;;;;;;;9.70;2.05;;;;;;;24.55;61.94;102021.47;6271178;28;20051;-72
2021/07/17 11:42:36;;;;;;;7.35;1.83;;;;;;;24.70;62.47;102021.03;6271323;28;20063;-72
2021/07/17 11:45:40;;;;;;;13.05;2.50;;;;;;;24.80;59.98;102017.34;6271122;28;20048;-72
2021/07/17 11:48:43;;;;;;;9.98;1.95;;;;;;;24.86;62.02;102020.47;6271301;28;20493;-72
2021/07/17 11:51:49;;;;;;;7.53;1.75;;;;;;;25.23;58.46;102012.47;6271151;28;20060;-73
2021/07/17 11:54:54;;;;;;;11.13;2.15;;;;;;;25.26;57.40;102031.00;6271203;28;20052;-73
2021/07/17 11:57:57;;;;;;;8.82;1.85;;;;;;;25.25;57.28;102008.66;6273592;28;20053;-72
2021/07/17 12:01:00;;;;;;;6.45;1.35;;;;;;;25.48;56.43;102009.13;6275729;28;20381;-72
2021/07/17 12:04:03;;;;;;;5.97;1.55;;;;;;;25.65;58.08;102012.00;6275529;28;20072;-72
2021/07/17 12:07:08;;;;;;;5.40;1.80;;;;;;;25.98;54.19;102011.44;6275635;28;20049;-75
2021/07/17 12:10:12;;;;;;;12.05;1.80;;;;;;;26.12;51.14;102011.91;6275550;28;20420;-73
2021/07/17 12:13:13;;;;;;;7.75;1.30;;;;;;;25.90;50.31;102005.94;6273968;28;20662;-71
2021/07/17 12:16:21;;;;;;;11.27;1.95;;;;;;;26.09;50.71;101998.72;6275696;28;20053;-73
2021/07/17 12:19:23;;;;;;;10.18;2.10;;;;;;;26.04;50.76;102001.88;6275342;28;20053;-71
2021/07/17 12:22:25;;;;;;;4.30;1.50;;;;;;;26.14;53.35;102008.03;6275443;28;20052;-71
2021/07/17 12:25:29;;;;;;;7.03;1.40;;;;;;;26.23;51.25;102001.72;6275349;28;20163;-73
2021/07/17 12:28:34;;;;;;;14.10;1.88;;;;;;;26.12;54.30;101995.75;6275138;28;20037;-72
2021/07/17 12:31:35;;;;;;;7.05;1.83;;;;;;;26.26;52.26;101997.91;6275204;28;20045;-71
2021/07/17 12:34:38;;;;;;;6.65;1.40;;;;;;;26.35;48.48;101991.56;6275123;28;20045;-72
2021/07/17 12:37:39;;;;;;;7.90;1.50;;;;;;;26.17;45.06;101996.97;6275239;28;20060;-73
2021/07/17 12:40:52;;;;;;;5.97;2.05;;;;;;;25.99;50.79;101991.56;6274847;28;20053;-73
2021/07/17 12:43:55;;;;;;;8.43;1.40;;;;;;;26.43;46.77;101996.16;6274876;28;20049;-75
2021/07/17 12:47:04;;;;;;;8.48;1.42;;;;;;;26.28;46.85;101990.50;6274793;28;20045;-75
2021/07/17 12:50:07;;;;;;;5.57;1.40;;;;;;;26.34;43.70;101978.22;6274116;28;20049;-71
2021/07/17 12:53:10;;;;;;;9.80;1.50;;;;;;;26.37;48.75;101988.72;6269666;28;20053;-74
2021/07/17 12:56:14;;;;;;;4.57;1.10;;;;;;;26.66;49.12;101975.84;6274554;28;20500;-75
2021/07/17 12:59:18;;;;;;;6.68;1.58;;;;;;;26.75;50.10;101984.84;6274406;28;20056;-71
2021/07/17 13:02:21;;;;;;;5.90;1.55;;;;;;;26.89;47.59;101980.72;6274488;28;20141;-74
2021/07/17 13:05:45;;;;;;;12.13;1.70;;;;;;;26.80;46.53;101986.06;6274464;28;20613;-73
2021/07/17 13:08:56;;;;;;;11.65;1.30;;;;;;;26.71;46.63;101980.78;6273192;28;20040;-75
2021/07/17 13:11:58;;;;;;;6.45;1.92;;;;;;;26.49;47.55;101974.03;6274132;28;20049;-73
2021/07/17 13:15:00;;;;;;;12.73;1.58;;;;;;;26.82;44.56;101964.31;6274038;28;20052;-74
2021/07/17 13:18:16;;;;;;;4.88;1.23;;;;;;;27.06;44.50;101979.81;6273996;28;20049;-74
2021/07/17 13:21:19;;;;;;;7.13;1.40;;;;;;;26.49;45.40;101980.28;6274022;28;20417;-74
2021/07/17 13:24:21;;;;;;;5.35;1.88;;;;;;;26.52;51.49;101974.53;6273745;28;20055;-74
2021/07/17 13:27:24;;;;;;;3.88;1.10;;;;;;;26.92;46.63;101966.91;6274097;28;20086;-74
2021/07/17 13:30:29;;;;;;;3.25;1.20;;;;;;;27.11;47.13;101977.50;6250794;28;20057;-74
2021/07/17 13:33:30;;;;;;;7.60;1.40;;;;;;;27.01;47.61;101966.78;6248996;28;20058;-75
2021/07/17 13:36:33;;;;;;;8.18;1.67;;;;;;;26.82;46.83;101964.31;6248882;28;20061;-74
2021/07/17 13:39:51;;;;;;;5.25;1.23;;;;;;;26.83;45.65;101963.31;6248980;28;20049;-74
2021/07/17 13:42:52;;;;;;;2.05;0.82;;;;;;;26.64;45.89;101964.38;6248627;28;20053;-73
2021/07/17 13:46:01;;;;;;;9.93;1.13;;;;;;;26.89;46.20;101960.00;6248816;28;20049;-73
2021/07/17 13:49:11;;;;;;;8.38;1.27;;;;;;;27.21;45.44;101962.06;6248470;28;20666;-74
2021/07/17 13:52:36;;;;;;;8.43;1.50;;;;;;;27.09;46.52;101962.50;6248715;28;20053;-74
2021/07/17 13:55:40;;;;;;;5.85;1.48;;;;;;;27.10;43.70;101956.94;6263800;28;20670;-74
2021/07/17 13:58:42;;;;;;;4.90;1.20;;;;;;;26.92;46.50;101948.03;6260580;28;20041;-75